Justell, Kentucky
Current Conditions -  °F | °C
As of 4:55 PM on Thursday 23 Oct 2014 (Local Time) from KPBX Reporting Station
Clear Clear  
Wind Chill: 53°   Ceiling: Unl
Heat Index: 53°   Visibility: 10mi
Dew Point: 41°   Wind: 3mph
Humidity: 63%   Direction: 20°NNE
Pressure: 30.13"   Gusts: NA
Location:  37.5394°N, 82.6933°W
Report Text: KPBX 232055Z AUTO 02003KT 10SM CLR 12/05 A3013 RMK AO2 T01180050
Loading
Personal Weather Stations






























Interactive Weather Map
Tropical Storm Tracking
New forecast layout! Learn more

10-Day Weather Forecast

Advertisements
Track Severe Weather on mobile